sensor_id;sensor_type;location;lat;lon;timestamp;pressure;altitude;pressure_sealevel;temperature;humidity
51067;BME280;37112;45.892;-123.962;2023-08-07T00:00:21;102281.16;;;20.99;74.66
51067;BME280;37112;45.892;-123.962;2023-08-07T00:02:54;102281.06;;;20.92;74.34
51067;BME280;37112;45.892;-123.962;2023-08-07T00:05:08;102278.52;;;20.90;74.91
51067;BME280;37112;45.892;-123.962;2023-08-07T00:07:21;102277.10;;;20.96;75.55
51067;BME280;37112;45.892;-123.962;2023-08-07T00:09:35;102271.56;;;21.03;75.77
51067;BME280;37112;45.892;-123.962;2023-08-07T00:11:47;102271.17;;;21.12;75.83
51067;BME280;37112;45.892;-123.962;2023-08-07T00:14:00;102272.74;;;21.19;75.83
51067;BME280;37112;45.892;-123.962;2023-08-07T00:16:13;102268.17;;;21.23;75.61
51067;BME280;37112;45.892;-123.962;2023-08-07T00:18:26;102267.01;;;21.26;75.39
51067;BME280;37112;45.892;-123.962;2023-08-07T00:20:39;102261.52;;;21.27;75.52
51067;BME280;37112;45.892;-123.962;2023-08-07T00:22:52;102262.70;;;21.26;75.35
51067;BME280;37112;45.892;-123.962;2023-08-07T00:25:07;102266.45;;;21.18;74.74
51067;BME280;37112;45.892;-123.962;2023-08-07T00:27:20;102265.94;;;21.10;74.76
51067;BME280;37112;45.892;-123.962;2023-08-07T00:29:33;102260.23;;;21.03;75.11
51067;BME280;37112;45.892;-123.962;2023-08-07T00:31:46;102265.16;;;20.98;75.47
51067;BME280;37112;45.892;-123.962;2023-08-07T00:34:00;102266.64;;;20.93;75.38
51067;BME280;37112;45.892;-123.962;2023-08-07T00:36:14;102268.77;;;20.85;75.36
51067;BME280;37112;45.892;-123.962;2023-08-07T00:38:28;102273.21;;;20.80;75.51
51067;BME280;37112;45.892;-123.962;2023-08-07T00:40:42;102273.52;;;20.75;75.88
51067;BME280;37112;45.892;-123.962;2023-08-07T00:42:55;102279.77;;;20.69;76.22
51067;BME280;37112;45.892;-123.962;2023-08-07T00:45:09;102277.34;;;20.70;76.55
51067;BME280;37112;45.892;-123.962;2023-08-07T00:47:22;102278.75;;;20.68;76.79
51067;BME280;37112;45.892;-123.962;2023-08-07T00:49:35;102274.17;;;20.67;77.33
51067;BME280;37112;45.892;-123.962;2023-08-07T00:51:49;102270.64;;;20.64;77.35
51067;BME280;37112;45.892;-123.962;2023-08-07T00:54:04;102270.98;;;20.60;77.40
51067;BME280;37112;45.892;-123.962;2023-08-07T00:56:17;102268.89;;;20.57;77.78
51067;BME280;37112;45.892;-123.962;2023-08-07T00:58:30;102265.44;;;20.57;78.01
51067;BME280;37112;45.892;-123.962;2023-08-07T01:00:44;102260.27;;;20.59;78.04
51067;BME280;37112;45.892;-123.962;2023-08-07T01:02:59;102263.85;;;20.61;78.37
51067;BME280;37112;45.892;-123.962;2023-08-07T01:05:12;102263.16;;;20.60;78.18
51067;BME280;37112;45.892;-123.962;2023-08-07T01:07:26;102263.14;;;20.61;78.32
51067;BME280;37112;45.892;-123.962;2023-08-07T01:09:39;102257.01;;;20.65;78.77
51067;BME280;37112;45.892;-123.962;2023-08-07T01:11:56;102257.69;;;20.67;78.68
51067;BME280;37112;45.892;-123.962;2023-08-07T01:14:16;102264.73;;;20.67;78.65
51067;BME280;37112;45.892;-123.962;2023-08-07T01:16:37;102266.50;;;20.66;78.27
51067;BME280;37112;45.892;-123.962;2023-08-07T01:18:51;102260.57;;;20.66;78.56
51067;BME280;37112;45.892;-123.962;2023-08-07T01:21:05;102257.25;;;20.69;78.87
51067;BME280;37112;45.892;-123.962;2023-08-07T01:23:18;102254.77;;;20.72;78.94
51067;BME280;37112;45.892;-123.962;2023-08-07T01:25:31;102249.06;;;20.75;78.61
51067;BME280;37112;45.892;-123.962;2023-08-07T01:27:50;102244.91;;;20.77;78.77
51067;BME280;37112;45.892;-123.962;2023-08-07T01:30:11;102245.16;;;20.85;78.89
51067;BME280;37112;45.892;-123.962;2023-08-07T01:32:26;102245.83;;;20.92;79.01
51067;BME280;37112;45.892;-123.962;2023-08-07T01:34:43;102247.37;;;20.99;78.80
51067;BME280;37112;45.892;-123.962;2023-08-07T01:36:59;102245.13;;;21.06;78.70
51067;BME280;37112;45.892;-123.962;2023-08-07T01:39:13;102247.83;;;21.12;78.11
51067;BME280;37112;45.892;-123.962;2023-08-07T01:41:28;102245.11;;;21.12;77.38
51067;BME280;37112;45.892;-123.962;2023-08-07T01:43:41;102244.80;;;21.08;76.67
51067;BME280;37112;45.892;-123.962;2023-08-07T01:45:54;102243.00;;;21.06;76.93
51067;BME280;37112;45.892;-123.962;2023-08-07T01:48:10;102237.32;;;21.09;76.99
51067;BME280;37112;45.892;-123.962;2023-08-07T01:50:24;102234.94;;;21.13;77.07
51067;BME280;37112;45.892;-123.962;2023-08-07T01:52:36;102225.92;;;21.21;77.50
51067;BME280;37112;45.892;-123.962;2023-08-07T01:54:49;102220.31;;;21.29;77.56
51067;BME280;37112;45.892;-123.962;2023-08-07T01:57:02;102216.32;;;21.36;77.41
51067;BME280;37112;45.892;-123.962;2023-08-07T01:59:15;102216.59;;;21.40;76.99
51067;BME280;37112;45.892;-123.962;2023-08-07T02:01:27;102216.23;;;21.41;76.50
51067;BME280;37112;45.892;-123.962;2023-08-07T02:03:40;102214.27;;;21.43;76.30
51067;BME280;37112;45.892;-123.962;2023-08-07T02:05:53;102218.40;;;21.43;76.14
51067;BME280;37112;45.892;-123.962;2023-08-07T02:08:06;102219.42;;;21.44;76.04
51067;BME280;37112;45.892;-123.962;2023-08-07T02:10:19;102217.86;;;21.43;75.74
51067;BME280;37112;45.892;-123.962;2023-08-07T02:12:34;102216.95;;;21.38;75.04
51067;BME280;37112;45.892;-123.962;2023-08-07T02:14:47;102218.30;;;21.30;74.49
51067;BME280;37112;45.892;-123.962;2023-08-07T02:16:59;102220.40;;;21.20;74.38
51067;BME280;37112;45.892;-123.962;2023-08-07T02:19:12;102228.70;;;21.08;74.08
51067;BME280;37112;45.892;-123.962;2023-08-07T02:21:24;102232.06;;;20.99;74.45
51067;BME280;37112;45.892;-123.962;2023-08-07T02:23:37;102237.31;;;20.88;74.16
51067;BME280;37112;45.892;-123.962;2023-08-07T02:25:51;102234.15;;;20.79;74.46
51067;BME280;37112;45.892;-123.962;2023-08-07T02:28:03;102233.55;;;20.69;74.51
51067;BME280;37112;45.892;-123.962;2023-08-07T02:30:16;102236.71;;;20.62;74.67
51067;BME280;37112;45.892;-123.962;2023-08-07T02:32:31;102239.41;;;20.55;75.09
51067;BME280;37112;45.892;-123.962;2023-08-07T02:34:44;102238.32;;;20.52;75.37
51067;BME280;37112;45.892;-123.962;2023-08-07T02:36:57;102236.92;;;20.47;75.53
51067;BME280;37112;45.892;-123.962;2023-08-07T02:39:10;102228.90;;;20.43;75.94
51067;BME280;37112;45.892;-123.962;2023-08-07T02:41:23;102232.64;;;20.42;76.14
51067;BME280;37112;45.892;-123.962;2023-08-07T02:43:36;102232.33;;;20.41;76.38
51067;BME280;37112;45.892;-123.962;2023-08-07T02:45:49;102230.31;;;20.40;76.38
51067;BME280;37112;45.892;-123.962;2023-08-07T02:48:02;102230.10;;;20.36;76.49
51067;BME280;37112;45.892;-123.962;2023-08-07T02:50:16;102227.89;;;20.32;76.64
51067;BME280;37112;45.892;-123.962;2023-08-07T02:52:29;102225.43;;;20.31;76.85
51067;BME280;37112;45.892;-123.962;2023-08-07T02:54:42;102227.63;;;20.30;76.95
51067;BME280;37112;45.892;-123.962;2023-08-07T02:56:55;102224.09;;;20.27;76.83
51067;BME280;37112;45.892;-123.962;2023-08-07T02:59:08;102222.52;;;20.23;76.67
51067;BME280;37112;45.892;-123.962;2023-08-07T03:01:21;102219.43;;;20.19;76.90
51067;BME280;37112;45.892;-123.962;2023-08-07T03:03:34;102215.59;;;20.15;76.97
51067;BME280;37112;45.892;-123.962;2023-08-07T03:05:52;102212.13;;;20.11;76.89
51067;BME280;37112;45.892;-123.962;2023-08-07T03:08:05;102202.14;;;20.06;76.86
51067;BME280;37112;45.892;-123.962;2023-08-07T03:10:18;102197.63;;;20.03;77.07
51067;BME280;37112;45.892;-123.962;2023-08-07T03:12:35;102196.61;;;20.05;77.54
51067;BME280;37112;45.892;-123.962;2023-08-07T03:14:48;102196.30;;;20.09;77.65
51067;BME280;37112;45.892;-123.962;2023-08-07T03:17:01;102201.45;;;20.08;77.35
51067;BME280;37112;45.892;-123.962;2023-08-07T03:19:14;102197.65;;;20.01;77.41
51067;BME280;37112;45.892;-123.962;2023-08-07T03:21:27;102196.49;;;20.00;77.43
51067;BME280;37112;45.892;-123.962;2023-08-07T03:23:40;102194.04;;;19.97;77.42
51067;BME280;37112;45.892;-123.962;2023-08-07T03:26:03;102191.56;;;19.97;77.96
51067;BME280;37112;45.892;-123.962;2023-08-07T03:28:19;102192.36;;;19.98;77.90
51067;BME280;37112;45.892;-123.962;2023-08-07T03:30:33;102189.91;;;19.97;77.95
51067;BME280;37112;45.892;-123.962;2023-08-07T03:32:46;102190.65;;;19.97;78.19
51067;BME280;37112;45.892;-123.962;2023-08-07T03:35:01;102185.98;;;19.98;78.38
51067;BME280;37112;45.892;-123.962;2023-08-07T03:37:14;102187.81;;;19.98;78.49
51067;BME280;37112;45.892;-123.962;2023-08-07T03:39:27;102185.11;;;20.00;78.76
51067;BME280;37112;45.892;-123.962;2023-08-07T03:41:40;102184.64;;;20.01;78.97
51067;BME280;37112;45.892;-123.962;2023-08-07T03:43:54;102179.55;;;20.02;78.93
51067;BME280;37112;45.892;-123.962;2023-08-07T03:46:08;102178.80;;;20.02;78.80
51067;BME280;37112;45.892;-123.962;2023-08-07T03:48:21;102178.44;;;20.02;78.95
51067;BME280;37112;45.892;-123.962;2023-08-07T03:50:34;102172.24;;;20.03;79.16
51067;BME280;37112;45.892;-123.962;2023-08-07T03:52:47;102168.71;;;20.04;79.39
51067;BME280;37112;45.892;-123.962;2023-08-07T03:55:01;102169.30;;;20.06;79.41
51067;BME280;37112;45.892;-123.962;2023-08-07T03:57:14;102170.36;;;20.09;79.44
51067;BME280;37112;45.892;-123.962;2023-08-07T03:59:27;102167.71;;;20.10;79.44
51067;BME280;37112;45.892;-123.962;2023-08-07T04:01:40;102168.46;;;20.12;79.46
51067;BME280;37112;45.892;-123.962;2023-08-07T04:03:52;102171.23;;;20.13;79.47
51067;BME280;37112;45.892;-123.962;2023-08-07T04:06:05;102168.89;;;20.13;79.50
51067;BME280;37112;45.892;-123.962;2023-08-07T04:08:18;102173.48;;;20.14;79.71
51067;BME280;37112;45.892;-123.962;2023-08-07T04:10:32;102170.11;;;20.15;79.70
51067;BME280;37112;45.892;-123.962;2023-08-07T04:12:45;102166.00;;;20.15;79.84
51067;BME280;37112;45.892;-123.962;2023-08-07T04:14:57;102171.69;;;20.14;79.77
51067;BME280;37112;45.892;-123.962;2023-08-07T04:17:10;102178.48;;;20.13;79.72
51067;BME280;37112;45.892;-123.962;2023-08-07T04:19:23;102184.29;;;20.12;80.11
51067;BME280;37112;45.892;-123.962;2023-08-07T04:21:36;102188.12;;;20.14;80.39
51067;BME280;37112;45.892;-123.962;2023-08-07T04:23:50;102191.43;;;20.15;80.30
51067;BME280;37112;45.892;-123.962;2023-08-07T04:26:03;102188.29;;;20.14;80.36
51067;BME280;37112;45.892;-123.962;2023-08-07T04:28:16;102184.77;;;20.13;80.36
51067;BME280;37112;45.892;-123.962;2023-08-07T04:30:30;102188.25;;;20.12;80.59
51067;BME280;37112;45.892;-123.962;2023-08-07T04:32:44;102192.19;;;20.13;80.78
51067;BME280;37112;45.892;-123.962;2023-08-07T04:34:57;102202.23;;;20.11;80.95
51067;BME280;37112;45.892;-123.962;2023-08-07T04:37:10;102207.92;;;20.06;80.47
51067;BME280;37112;45.892;-123.962;2023-08-07T04:39:23;102218.75;;;19.97;79.76
51067;BME280;37112;45.892;-123.962;2023-08-07T04:41:36;102226.42;;;19.89;79.87
51067;BME280;37112;45.892;-123.962;2023-08-07T04:43:49;102228.69;;;19.82;79.89
51067;BME280;37112;45.892;-123.962;2023-08-07T04:46:02;102232.21;;;19.73;79.55
51067;BME280;37112;45.892;-123.962;2023-08-07T04:48:15;102235.02;;;19.59;78.88
51067;BME280;37112;45.892;-123.962;2023-08-07T04:50:28;102229.43;;;19.43;78.67
51067;BME280;37112;45.892;-123.962;2023-08-07T04:52:42;102229.23;;;19.37;79.38
51067;BME280;37112;45.892;-123.962;2023-08-07T04:54:54;102230.75;;;19.36;79.84
51067;BME280;37112;45.892;-123.962;2023-08-07T04:57:08;102231.33;;;19.38;80.17
51067;BME280;37112;45.892;-123.962;2023-08-07T04:59:20;102225.36;;;19.41;80.65
51067;BME280;37112;45.892;-123.962;2023-08-07T05:01:34;102218.42;;;19.44;81.01
51067;BME280;37112;45.892;-123.962;2023-08-07T05:03:47;102217.37;;;19.48;81.06
51067;BME280;37112;45.892;-123.962;2023-08-07T05:06:03;102219.00;;;19.52;81.19
51067;BME280;37112;45.892;-123.962;2023-08-07T05:08:18;102222.88;;;19.58;81.60
51067;BME280;37112;45.892;-123.962;2023-08-07T05:10:31;102230.50;;;19.62;81.61
51067;BME280;37112;45.892;-123.962;2023-08-07T05:12:45;102242.51;;;19.65;81.69
51067;BME280;37112;45.892;-123.962;2023-08-07T05:14:57;102247.77;;;19.66;82.01
51067;BME280;37112;45.892;-123.962;2023-08-07T05:17:10;102251.71;;;19.69;82.01
51067;BME280;37112;45.892;-123.962;2023-08-07T05:19:23;102252.73;;;19.63;81.18
51067;BME280;37112;45.892;-123.962;2023-08-07T05:21:37;102249.33;;;19.56;80.87
51067;BME280;37112;45.892;-123.962;2023-08-07T05:23:49;102247.09;;;19.52;80.97
51067;BME280;37112;45.892;-123.962;2023-08-07T05:26:03;102243.54;;;19.52;81.18
51067;BME280;37112;45.892;-123.962;2023-08-07T05:28:17;102239.77;;;19.54;81.39
51067;BME280;37112;45.892;-123.962;2023-08-07T05:30:30;102218.98;;;19.55;81.56
51067;BME280;37112;45.892;-123.962;2023-08-07T05:32:43;102212.52;;;19.54;81.61
51067;BME280;37112;45.892;-123.962;2023-08-07T05:34:56;102209.83;;;19.55;81.88
51067;BME280;37112;45.892;-123.962;2023-08-07T05:37:09;102205.61;;;19.55;82.10
51067;BME280;37112;45.892;-123.962;2023-08-07T05:39:23;102201.33;;;19.57;82.46
51067;BME280;37112;45.892;-123.962;2023-08-07T05:41:36;102201.48;;;19.59;82.77
51067;BME280;37112;45.892;-123.962;2023-08-07T05:43:50;102202.95;;;19.62;82.86
51067;BME280;37112;45.892;-123.962;2023-08-07T05:46:03;102201.04;;;19.63;83.03
51067;BME280;37112;45.892;-123.962;2023-08-07T05:48:16;102197.09;;;19.65;83.51
51067;BME280;37112;45.892;-123.962;2023-08-07T05:50:29;102194.11;;;19.66;83.53
51067;BME280;37112;45.892;-123.962;2023-08-07T05:52:42;102199.64;;;19.67;83.82
51067;BME280;37112;45.892;-123.962;2023-08-07T05:54:55;102197.11;;;19.67;84.00
51067;BME280;37112;45.892;-123.962;2023-08-07T05:57:09;102191.39;;;19.66;83.97
51067;BME280;37112;45.892;-123.962;2023-08-07T05:59:22;102187.82;;;19.66;83.99
51067;BME280;37112;45.892;-123.962;2023-08-07T06:01:35;102187.79;;;19.64;84.03
51067;BME280;37112;45.892;-123.962;2023-08-07T06:03:47;102181.55;;;19.63;84.27
51067;BME280;37112;45.892;-123.962;2023-08-07T06:06:00;102178.91;;;19.60;84.31
51067;BME280;37112;45.892;-123.962;2023-08-07T06:08:14;102178.70;;;19.56;84.35
51067;BME280;37112;45.892;-123.962;2023-08-07T06:10:27;102181.99;;;19.53;84.57
51067;BME280;37112;45.892;-123.962;2023-08-07T06:12:40;102175.41;;;19.52;84.69
51067;BME280;37112;45.892;-123.962;2023-08-07T06:14:53;102171.95;;;19.50;84.70
51067;BME280;37112;45.892;-123.962;2023-08-07T06:17:06;102174.10;;;19.48;84.85
51067;BME280;37112;45.892;-123.962;2023-08-07T06:19:18;102168.53;;;19.46;84.96
51067;BME280;37112;45.892;-123.962;2023-08-07T06:21:42;102163.27;;;19.44;85.28
51067;BME280;37112;45.892;-123.962;2023-08-07T06:23:55;102152.13;;;19.42;85.36
51067;BME280;37112;45.892;-123.962;2023-08-07T06:26:08;102151.08;;;19.39;85.43
51067;BME280;37112;45.892;-123.962;2023-08-07T06:28:20;102156.03;;;19.36;85.39
51067;BME280;37112;45.892;-123.962;2023-08-07T06:30:34;102163.08;;;19.33;85.58
51067;BME280;37112;45.892;-123.962;2023-08-07T06:32:47;102162.30;;;19.32;85.75
51067;BME280;37112;45.892;-123.962;2023-08-07T06:35:00;102147.48;;;19.31;85.92
51067;BME280;37112;45.892;-123.962;2023-08-07T06:37:13;102130.58;;;19.30;86.20
51067;BME280;37112;45.892;-123.962;2023-08-07T06:39:25;102130.02;;;19.30;86.53
51067;BME280;37112;45.892;-123.962;2023-08-07T06:41:38;102147.13;;;19.30;86.64
51067;BME280;37112;45.892;-123.962;2023-08-07T06:43:53;102154.80;;;19.29;86.62
51067;BME280;37112;45.892;-123.962;2023-08-07T06:46:06;102143.36;;;19.28;86.99
51067;BME280;37112;45.892;-123.962;2023-08-07T06:48:19;102134.31;;;19.28;87.06
51067;BME280;37112;45.892;-123.962;2023-08-07T06:50:32;102132.66;;;19.29;86.95
51067;BME280;37112;45.892;-123.962;2023-08-07T06:52:44;102128.51;;;19.29;86.91
51067;BME280;37112;45.892;-123.962;2023-08-07T06:54:57;102123.39;;;19.28;86.98
51067;BME280;37112;45.892;-123.962;2023-08-07T06:57:09;102119.66;;;19.27;87.17
51067;BME280;37112;45.892;-123.962;2023-08-07T06:59:22;102123.58;;;19.28;87.22
51067;BME280;37112;45.892;-123.962;2023-08-07T07:01:36;102127.78;;;19.29;87.51
51067;BME280;37112;45.892;-123.962;2023-08-07T07:03:49;102130.38;;;19.30;87.47
51067;BME280;37112;45.892;-123.962;2023-08-07T07:06:02;102125.27;;;19.31;87.66
51067;BME280;37112;45.892;-123.962;2023-08-07T07:08:15;102131.98;;;19.33;87.82
51067;BME280;37112;45.892;-123.962;2023-08-07T07:10:28;102147.41;;;19.33;88.09
51067;BME280;37112;45.892;-123.962;2023-08-07T07:12:41;102151.62;;;19.35;88.37
51067;BME280;37112;45.892;-123.962;2023-08-07T07:14:53;102147.27;;;19.37;88.55
51067;BME280;37112;45.892;-123.962;2023-08-07T07:17:07;102142.39;;;19.40;88.46
51067;BME280;37112;45.892;-123.962;2023-08-07T07:19:20;102140.66;;;19.41;88.56
51067;BME280;37112;45.892;-123.962;2023-08-07T07:21:33;102147.20;;;19.42;88.56
51067;BME280;37112;45.892;-123.962;2023-08-07T07:23:46;102145.61;;;19.44;88.80
51067;BME280;37112;45.892;-123.962;2023-08-07T07:25:59;102140.40;;;19.46;88.83
51067;BME280;37112;45.892;-123.962;2023-08-07T07:28:13;102138.58;;;19.40;87.11
51067;BME280;37112;45.892;-123.962;2023-08-07T07:30:25;102144.20;;;19.22;86.22
51067;BME280;37112;45.892;-123.962;2023-08-07T07:32:38;102147.80;;;19.13;86.51
51067;BME280;37112;45.892;-123.962;2023-08-07T07:34:51;102149.23;;;19.09;86.79
51067;BME280;37112;45.892;-123.962;2023-08-07T07:37:04;102146.25;;;19.06;86.75
51067;BME280;37112;45.892;-123.962;2023-08-07T07:39:17;102148.64;;;19.03;86.81
51067;BME280;37112;45.892;-123.962;2023-08-07T07:41:30;102152.08;;;19.03;87.21
51067;BME280;37112;45.892;-123.962;2023-08-07T07:43:43;102145.71;;;19.03;87.49
51067;BME280;37112;45.892;-123.962;2023-08-07T07:45:55;102131.77;;;19.04;87.57
51067;BME280;37112;45.892;-123.962;2023-08-07T07:48:08;102129.23;;;19.07;87.95
51067;BME280;37112;45.892;-123.962;2023-08-07T07:50:21;102118.56;;;19.10;88.10
51067;BME280;37112;45.892;-123.962;2023-08-07T07:52:35;102118.06;;;19.11;88.34
51067;BME280;37112;45.892;-123.962;2023-08-07T07:54:48;102121.73;;;19.12;88.52
51067;BME280;37112;45.892;-123.962;2023-08-07T07:57:02;102127.11;;;19.13;88.71
51067;BME280;37112;45.892;-123.962;2023-08-07T07:59:15;102126.09;;;19.12;88.62
51067;BME280;37112;45.892;-123.962;2023-08-07T08:01:27;102124.34;;;19.09;88.69
51067;BME280;37112;45.892;-123.962;2023-08-07T08:03:41;102119.23;;;19.08;88.82
51067;BME280;37112;45.892;-123.962;2023-08-07T08:05:55;102117.70;;;19.07;89.04
51067;BME280;37112;45.892;-123.962;2023-08-07T08:08:09;102116.63;;;19.07;89.20
51067;BME280;37112;45.892;-123.962;2023-08-07T08:10:21;102119.69;;;19.07;89.25
51067;BME280;37112;45.892;-123.962;2023-08-07T08:12:36;102118.06;;;19.07;89.42
51067;BME280;37112;45.892;-123.962;2023-08-07T08:14:49;102117.65;;;19.08;89.59
51067;BME280;37112;45.892;-123.962;2023-08-07T08:17:05;102112.70;;;19.09;89.84
51067;BME280;37112;45.892;-123.962;2023-08-07T08:19:18;102114.69;;;19.08;89.84
51067;BME280;37112;45.892;-123.962;2023-08-07T08:21:31;102115.23;;;19.09;89.90
51067;BME280;37112;45.892;-123.962;2023-08-07T08:23:44;102119.80;;;18.94;87.69
51067;BME280;37112;45.892;-123.962;2023-08-07T08:25:56;102117.73;;;18.68;86.11
51067;BME280;37112;45.892;-123.962;2023-08-07T08:28:09;102121.50;;;18.46;85.89
51067;BME280;37112;45.892;-123.962;2023-08-07T08:30:22;102123.11;;;18.32;86.30
51067;BME280;37112;45.892;-123.962;2023-08-07T08:32:35;102122.67;;;18.22;86.62
51067;BME280;37112;45.892;-123.962;2023-08-07T08:34:48;102125.30;;;18.16;87.41
51067;BME280;37112;45.892;-123.962;2023-08-07T08:37:01;102120.58;;;18.14;88.09
51067;BME280;37112;45.892;-123.962;2023-08-07T08:39:16;102111.12;;;18.15;88.63
51067;BME280;37112;45.892;-123.962;2023-08-07T08:41:29;102106.85;;;18.17;88.86
51067;BME280;37112;45.892;-123.962;2023-08-07T08:43:45;102095.88;;;18.19;89.30
51067;BME280;37112;45.892;-123.962;2023-08-07T08:45:59;102093.63;;;18.20;89.54
51067;BME280;37112;45.892;-123.962;2023-08-07T08:48:19;102097.60;;;18.23;90.04
51067;BME280;37112;45.892;-123.962;2023-08-07T08:50:34;102091.19;;;18.24;90.33
51067;BME280;37112;45.892;-123.962;2023-08-07T08:52:47;102085.19;;;18.27;90.36
51067;BME280;37112;45.892;-123.962;2023-08-07T08:55:00;102084.94;;;18.30;90.51
51067;BME280;37112;45.892;-123.962;2023-08-07T08:57:14;102079.43;;;18.34;90.77
51067;BME280;37112;45.892;-123.962;2023-08-07T08:59:26;102082.48;;;18.36;90.78
51067;BME280;37112;45.892;-123.962;2023-08-07T09:01:40;102083.79;;;18.40;91.01
51067;BME280;37112;45.892;-123.962;2023-08-07T09:03:53;102080.26;;;18.44;91.14
51067;BME280;37112;45.892;-123.962;2023-08-07T09:06:06;102076.01;;;18.48;91.30
51067;BME280;37112;45.892;-123.962;2023-08-07T09:08:20;102074.21;;;18.52;91.53
51067;BME280;37112;45.892;-123.962;2023-08-07T09:10:34;102071.73;;;18.56;91.65
51067;BME280;37112;45.892;-123.962;2023-08-07T09:12:57;102075.16;;;18.60;91.93
51067;BME280;37112;45.892;-123.962;2023-08-07T09:15:17;102068.36;;;18.64;91.75
51067;BME280;37112;45.892;-123.962;2023-08-07T09:17:35;102066.65;;;18.69;91.83
51067;BME280;37112;45.892;-123.962;2023-08-07T09:19:50;102062.80;;;18.71;91.92
51067;BME280;37112;45.892;-123.962;2023-08-07T09:22:03;102062.80;;;18.76;92.04
51067;BME280;37112;45.892;-123.962;2023-08-07T09:24:17;102062.16;;;18.79;92.20
51067;BME280;37112;45.892;-123.962;2023-08-07T09:26:34;102061.77;;;18.84;92.23
51067;BME280;37112;45.892;-123.962;2023-08-07T09:28:46;102057.27;;;18.89;92.26
51067;BME280;37112;45.892;-123.962;2023-08-07T09:30:59;102052.36;;;18.89;91.80
51067;BME280;37112;45.892;-123.962;2023-08-07T09:33:13;102052.75;;;18.89;91.56
51067;BME280;37112;45.892;-123.962;2023-08-07T09:35:25;102049.48;;;18.89;91.53
51067;BME280;37112;45.892;-123.962;2023-08-07T09:37:38;102048.84;;;18.91;91.65
51067;BME280;37112;45.892;-123.962;2023-08-07T09:39:51;102050.05;;;18.91;91.92
51067;BME280;37112;45.892;-123.962;2023-08-07T09:42:04;102046.36;;;18.92;91.92
51067;BME280;37112;45.892;-123.962;2023-08-07T09:44:17;102050.89;;;18.92;91.57
51067;BME280;37112;45.892;-123.962;2023-08-07T09:46:29;102044.69;;;18.91;91.32
51067;BME280;37112;45.892;-123.962;2023-08-07T09:48:48;102042.88;;;18.91;91.65
51067;BME280;37112;45.892;-123.962;2023-08-07T09:51:03;102046.98;;;18.87;90.62
51067;BME280;37112;45.892;-123.962;2023-08-07T09:53:16;102046.35;;;18.73;89.61
51067;BME280;37112;45.892;-123.962;2023-08-07T09:55:29;102046.08;;;18.64;89.71
51067;BME280;37112;45.892;-123.962;2023-08-07T09:57:42;102045.88;;;18.60;89.68
51067;BME280;37112;45.892;-123.962;2023-08-07T09:59:54;102044.70;;;18.48;89.01
51067;BME280;37112;45.892;-123.962;2023-08-07T10:02:08;102041.67;;;18.43;89.39
51067;BME280;37112;45.892;-123.962;2023-08-07T10:04:23;102042.86;;;18.44;90.07
51067;BME280;37112;45.892;-123.962;2023-08-07T10:06:35;102042.79;;;18.45;90.13
51067;BME280;37112;45.892;-123.962;2023-08-07T10:08:49;102044.36;;;18.36;89.30
51067;BME280;37112;45.892;-123.962;2023-08-07T10:11:02;102043.23;;;18.32;89.34
51067;BME280;37112;45.892;-123.962;2023-08-07T10:13:15;102040.30;;;18.33;89.83
51067;BME280;37112;45.892;-123.962;2023-08-07T10:15:36;102040.35;;;18.35;90.27
51067;BME280;37112;45.892;-123.962;2023-08-07T10:17:50;102043.71;;;18.31;89.43
51067;BME280;37112;45.892;-123.962;2023-08-07T10:20:05;102041.55;;;18.24;89.41
51067;BME280;37112;45.892;-123.962;2023-08-07T10:22:19;102039.49;;;18.23;89.69
51067;BME280;37112;45.892;-123.962;2023-08-07T10:24:32;102040.63;;;18.25;90.16
51067;BME280;37112;45.892;-123.962;2023-08-07T10:26:48;102041.92;;;18.26;90.21
51067;BME280;37112;45.892;-123.962;2023-08-07T10:29:04;102034.52;;;18.22;89.52
51067;BME280;37112;45.892;-123.962;2023-08-07T10:31:18;102032.49;;;18.18;89.57
51067;BME280;37112;45.892;-123.962;2023-08-07T10:33:34;102028.96;;;18.18;89.99
51067;BME280;37112;45.892;-123.962;2023-08-07T10:35:51;102027.52;;;18.20;90.29
51067;BME280;37112;45.892;-123.962;2023-08-07T10:38:14;102027.23;;;18.24;90.64
51067;BME280;37112;45.892;-123.962;2023-08-07T10:40:30;102022.62;;;18.27;90.69
51067;BME280;37112;45.892;-123.962;2023-08-07T10:42:58;102019.40;;;18.29;90.61
51067;BME280;37112;45.892;-123.962;2023-08-07T10:45:11;102017.43;;;18.31;90.58
51067;BME280;37112;45.892;-123.962;2023-08-07T10:47:37;102017.95;;;18.34;90.67
51067;BME280;37112;45.892;-123.962;2023-08-07T10:49:49;102019.57;;;18.36;90.95
51067;BME280;37112;45.892;-123.962;2023-08-07T10:52:04;102014.61;;;18.38;90.84
51067;BME280;37112;45.892;-123.962;2023-08-07T10:54:21;102013.48;;;18.40;91.09
51067;BME280;37112;45.892;-123.962;2023-08-07T10:56:37;102011.71;;;18.42;91.31
51067;BME280;37112;45.892;-123.962;2023-08-07T10:58:54;102016.51;;;18.45;91.47
51067;BME280;37112;45.892;-123.962;2023-08-07T11:01:21;102012.63;;;18.49;91.81
51067;BME280;37112;45.892;-123.962;2023-08-07T11:03:39;102017.33;;;18.53;91.95
51067;BME280;37112;45.892;-123.962;2023-08-07T11:05:54;102017.73;;;18.52;90.96
51067;BME280;37112;45.892;-123.962;2023-08-07T11:08:10;102016.72;;;18.27;88.58
51067;BME280;37112;45.892;-123.962;2023-08-07T11:10:24;102010.25;;;18.13;88.92
51067;BME280;37112;45.892;-123.962;2023-08-07T11:12:39;102018.70;;;18.09;89.12